sensor_id;sensor_type;location;lat;lon;timestamp;pressure;altitude;pressure_sealevel;temperature;humidity
62201;BME280;48197;42.732;27.192;2022-07-25T00:00:28;99440.75;;;20.88;73.26
62201;BME280;48197;42.732;27.192;2022-07-25T00:02:55;99443.06;;;20.75;73.72
62201;BME280;48197;42.732;27.192;2022-07-25T00:05:22;99431.78;;;20.60;74.46
62201;BME280;48197;42.732;27.192;2022-07-25T00:07:49;99431.25;;;20.47;75.03
62201;BME280;48197;42.732;27.192;2022-07-25T00:10:16;99443.03;;;20.36;75.63
62201;BME280;48197;42.732;27.192;2022-07-25T00:12:43;99446.47;;;20.31;76.02
62201;BME280;48197;42.732;27.192;2022-07-25T00:15:10;99455.19;;;20.33;75.83
62201;BME280;48197;42.732;27.192;2022-07-25T00:17:37;99452.09;;;20.31;76.16
62201;BME280;48197;42.732;27.192;2022-07-25T00:20:03;99454.72;;;20.34;76.23
62201;BME280;48197;42.732;27.192;2022-07-25T00:22:29;99451.38;;;20.45;75.96
62201;BME280;48197;42.732;27.192;2022-07-25T00:24:56;99461.75;;;20.54;75.28
62201;BME280;48197;42.732;27.192;2022-07-25T00:27:22;99470.91;;;20.64;74.64
62201;BME280;48197;42.732;27.192;2022-07-25T00:29:49;99477.34;;;20.79;73.13
62201;BME280;48197;42.732;27.192;2022-07-25T00:32:15;99490.56;;;21.03;71.47
62201;BME280;48197;42.732;27.192;2022-07-25T00:34:42;99498.81;;;21.21;69.77
62201;BME280;48197;42.732;27.192;2022-07-25T00:37:08;99506.97;;;21.34;69.16
62201;BME280;48197;42.732;27.192;2022-07-25T00:39:35;99499.59;;;21.36;69.19
62201;BME280;48197;42.732;27.192;2022-07-25T00:42:02;99498.63;;;21.39;71.84
62201;BME280;48197;42.732;27.192;2022-07-25T00:44:29;99517.66;;;21.45;75.31
62201;BME280;48197;42.732;27.192;2022-07-25T00:46:59;99509.72;;;21.43;78.23
62201;BME280;48197;42.732;27.192;2022-07-25T01:02:14;99515.19;;;21.23;89.97
62201;BME280;48197;42.732;27.192;2022-07-25T01:04:41;99508.19;;;21.18;90.52
62201;BME280;48197;42.732;27.192;2022-07-25T01:07:08;99510.06;;;21.21;90.23
62201;BME280;48197;42.732;27.192;2022-07-25T01:09:35;99491.63;;;21.20;89.49
62201;BME280;48197;42.732;27.192;2022-07-25T01:12:02;99505.38;;;21.18;87.86
62201;BME280;48197;42.732;27.192;2022-07-25T01:14:28;99504.03;;;21.13;86.44
62201;BME280;48197;42.732;27.192;2022-07-25T01:16:55;99494.44;;;21.05;85.65
62201;BME280;48197;42.732;27.192;2022-07-25T01:19:22;99485.78;;;20.94;84.61
62201;BME280;48197;42.732;27.192;2022-07-25T01:34:00;99457.78;;;20.85;78.09
62201;BME280;48197;42.732;27.192;2022-07-25T01:36:27;99465.44;;;20.84;77.38
62201;BME280;48197;42.732;27.192;2022-07-25T01:38:53;99459.81;;;20.84;76.58
62201;BME280;48197;42.732;27.192;2022-07-25T01:41:20;99455.47;;;20.83;76.17
62201;BME280;48197;42.732;27.192;2022-07-25T01:43:54;99449.38;;;20.85;74.88
62201;BME280;48197;42.732;27.192;2022-07-25T01:58:32;99411.50;;;21.25;70.78
62201;BME280;48197;42.732;27.192;2022-07-25T02:01:02;99405.09;;;21.24;70.58
62201;BME280;48197;42.732;27.192;2022-07-25T02:03:36;99413.13;;;21.31;70.74
62201;BME280;48197;42.732;27.192;2022-07-25T02:06:03;99406.53;;;21.34;70.53
62201;BME280;48197;42.732;27.192;2022-07-25T02:08:42;99406.16;;;21.41;70.64
62201;BME280;48197;42.732;27.192;2022-07-25T02:11:11;99392.13;;;21.41;70.82
62201;BME280;48197;42.732;27.192;2022-07-25T02:13:39;99394.25;;;21.47;70.89
62201;BME280;48197;42.732;27.192;2022-07-25T02:16:51;99379.00;;;21.53;70.98
62201;BME280;48197;42.732;27.192;2022-07-25T02:19:17;99382.13;;;21.55;70.97
62201;BME280;48197;42.732;27.192;2022-07-25T02:21:43;99373.16;;;21.57;71.14
62201;BME280;48197;42.732;27.192;2022-07-25T02:24:10;99379.06;;;21.59;71.04
62201;BME280;48197;42.732;27.192;2022-07-25T02:38:50;99368.22;;;21.67;70.87
62201;BME280;48197;42.732;27.192;2022-07-25T02:41:20;99354.91;;;21.67;71.28
62201;BME280;48197;42.732;27.192;2022-07-25T02:55:59;99288.13;;;22.03;68.91
62201;BME280;48197;42.732;27.192;2022-07-25T02:58:26;99279.56;;;22.18;68.45
62201;BME280;48197;42.732;27.192;2022-07-25T03:00:53;99264.31;;;22.25;67.61
62201;BME280;48197;42.732;27.192;2022-07-25T03:03:20;99257.06;;;22.38;66.89
62201;BME280;48197;42.732;27.192;2022-07-25T03:05:47;99251.31;;;22.53;65.18
62201;BME280;48197;42.732;27.192;2022-07-25T03:08:13;99246.84;;;22.73;64.08
62201;BME280;48197;42.732;27.192;2022-07-25T03:10:40;99257.69;;;22.86;63.66
62201;BME280;48197;42.732;27.192;2022-07-25T03:13:07;99284.09;;;22.88;63.05
62201;BME280;48197;42.732;27.192;2022-07-25T03:15:33;99278.00;;;22.95;62.64
62201;BME280;48197;42.732;27.192;2022-07-25T03:18:01;99295.84;;;22.81;63.43
62201;BME280;48197;42.732;27.192;2022-07-25T03:20:27;99308.41;;;22.59;64.37
62201;BME280;48197;42.732;27.192;2022-07-25T03:22:54;99303.72;;;22.51;64.68
62201;BME280;48197;42.732;27.192;2022-07-25T03:28:23;99359.66;;;22.17;66.27
62201;BME280;48197;42.732;27.192;2022-07-25T03:30:50;99393.22;;;22.00;66.93
62201;BME280;48197;42.732;27.192;2022-07-25T03:33:17;99422.53;;;21.93;67.32
62201;BME280;48197;42.732;27.192;2022-07-25T03:35:44;99432.19;;;22.07;67.33
62201;BME280;48197;42.732;27.192;2022-07-25T03:38:10;99429.97;;;22.32;65.98
62201;BME280;48197;42.732;27.192;2022-07-25T03:40:37;99432.28;;;22.54;64.91
62201;BME280;48197;42.732;27.192;2022-07-25T03:43:04;99448.88;;;22.72;64.42
62201;BME280;48197;42.732;27.192;2022-07-25T03:45:30;99446.13;;;22.78;64.43
62201;BME280;48197;42.732;27.192;2022-07-25T03:47:56;99447.72;;;22.84;63.80
62201;BME280;48197;42.732;27.192;2022-07-25T03:50:23;99445.88;;;23.02;63.13
62201;BME280;48197;42.732;27.192;2022-07-25T03:52:50;99443.75;;;23.17;62.29
62201;BME280;48197;42.732;27.192;2022-07-25T03:55:16;99451.75;;;23.24;61.75
62201;BME280;48197;42.732;27.192;2022-07-25T03:57:43;99455.59;;;23.27;61.47
62201;BME280;48197;42.732;27.192;2022-07-25T04:00:09;99469.91;;;23.23;61.60
62201;BME280;48197;42.732;27.192;2022-07-25T04:02:37;99484.75;;;23.18;61.69
62201;BME280;48197;42.732;27.192;2022-07-25T04:05:04;99509.56;;;23.14;61.97
62201;BME280;48197;42.732;27.192;2022-07-25T04:07:31;99522.31;;;23.10;62.47
62201;BME280;48197;42.732;27.192;2022-07-25T04:09:58;99530.22;;;23.06;62.58
62201;BME280;48197;42.732;27.192;2022-07-25T04:12:23;99527.41;;;23.06;62.82
62201;BME280;48197;42.732;27.192;2022-07-25T04:14:50;99527.88;;;23.04;63.30
62201;BME280;48197;42.732;27.192;2022-07-25T04:17:17;99525.69;;;22.93;64.90
62201;BME280;48197;42.732;27.192;2022-07-25T04:19:45;99539.38;;;22.80;66.03
62201;BME280;48197;42.732;27.192;2022-07-25T04:22:10;99538.94;;;22.67;67.13
62201;BME280;48197;42.732;27.192;2022-07-25T04:24:38;99535.28;;;22.60;67.63
62201;BME280;48197;42.732;27.192;2022-07-25T04:27:05;99539.16;;;22.63;67.84
62201;BME280;48197;42.732;27.192;2022-07-25T04:29:31;99546.50;;;22.75;67.87
62201;BME280;48197;42.732;27.192;2022-07-25T04:31:57;99535.41;;;22.92;67.55
62201;BME280;48197;42.732;27.192;2022-07-25T04:34:24;99546.69;;;22.92;67.78
62201;BME280;48197;42.732;27.192;2022-07-25T04:36:51;99544.44;;;22.96;68.04
62201;BME280;48197;42.732;27.192;2022-07-25T04:39:18;99539.78;;;22.93;68.14
62201;BME280;48197;42.732;27.192;2022-07-25T04:41:44;99535.75;;;23.00;67.85
62201;BME280;48197;42.732;27.192;2022-07-25T04:44:11;99530.13;;;23.20;67.50
62201;BME280;48197;42.732;27.192;2022-07-25T04:46:39;99533.75;;;23.53;66.90
62201;BME280;48197;42.732;27.192;2022-07-25T04:49:05;99542.72;;;23.77;66.39
62201;BME280;48197;42.732;27.192;2022-07-25T04:51:32;99542.31;;;23.90;66.08
62201;BME280;48197;42.732;27.192;2022-07-25T04:53:57;99541.97;;;24.14;65.44
62201;BME280;48197;42.732;27.192;2022-07-25T04:56:24;99542.56;;;24.24;64.92
62201;BME280;48197;42.732;27.192;2022-07-25T04:58:51;99555.63;;;24.21;64.76
62201;BME280;48197;42.732;27.192;2022-07-25T05:01:17;99554.66;;;24.30;64.23
62201;BME280;48197;42.732;27.192;2022-07-25T05:03:44;99551.63;;;24.39;64.11
62201;BME280;48197;42.732;27.192;2022-07-25T05:06:11;99550.97;;;24.50;64.04
62201;BME280;48197;42.732;27.192;2022-07-25T05:08:38;99554.59;;;24.56;63.65
62201;BME280;48197;42.732;27.192;2022-07-25T05:11:05;99554.22;;;24.43;64.28
62201;BME280;48197;42.732;27.192;2022-07-25T05:13:31;99544.84;;;24.20;64.45
62201;BME280;48197;42.732;27.192;2022-07-25T05:15:58;99556.31;;;24.11;64.87
62201;BME280;48197;42.732;27.192;2022-07-25T05:18:25;99567.38;;;24.14;64.57
62201;BME280;48197;42.732;27.192;2022-07-25T05:20:52;99558.00;;;24.34;64.89
62201;BME280;48197;42.732;27.192;2022-07-25T05:23:17;99548.19;;;24.61;64.04
62201;BME280;48197;42.732;27.192;2022-07-25T05:25:44;99550.34;;;24.89;63.77
62201;BME280;48197;42.732;27.192;2022-07-25T05:28:10;99551.00;;;25.33;63.36
62201;BME280;48197;42.732;27.192;2022-07-25T05:30:40;99555.94;;;25.55;62.62
62201;BME280;48197;42.732;27.192;2022-07-25T05:33:06;99553.16;;;25.89;61.44
62201;BME280;48197;42.732;27.192;2022-07-25T05:35:33;99548.00;;;26.10;60.77
62201;BME280;48197;42.732;27.192;2022-07-25T05:38:00;99551.28;;;26.59;59.14
62201;BME280;48197;42.732;27.192;2022-07-25T05:40:27;99548.59;;;26.89;57.56
62201;BME280;48197;42.732;27.192;2022-07-25T05:42:53;99557.38;;;27.38;56.50
62201;BME280;48197;42.732;27.192;2022-07-25T05:45:19;99563.19;;;27.57;54.49
62201;BME280;48197;42.732;27.192;2022-07-25T05:47:45;99565.34;;;27.76;53.37
62201;BME280;48197;42.732;27.192;2022-07-25T05:50:13;99579.13;;;28.02;53.23
62201;BME280;48197;42.732;27.192;2022-07-25T05:52:39;99582.44;;;28.06;52.78
62201;BME280;48197;42.732;27.192;2022-07-25T05:55:05;99579.53;;;28.12;52.29
62201;BME280;48197;42.732;27.192;2022-07-25T05:57:31;99578.56;;;28.58;51.35
62201;BME280;48197;42.732;27.192;2022-07-25T06:00:00;99574.84;;;28.69;50.42
62201;BME280;48197;42.732;27.192;2022-07-25T06:02:27;99580.38;;;28.31;51.13
62201;BME280;48197;42.732;27.192;2022-07-25T06:04:53;99583.16;;;28.37;50.81
62201;BME280;48197;42.732;27.192;2022-07-25T06:07:21;99580.06;;;28.65;50.15
62201;BME280;48197;42.732;27.192;2022-07-25T06:09:47;99577.44;;;28.67;50.04
62201;BME280;48197;42.732;27.192;2022-07-25T06:12:14;99571.53;;;29.27;49.30
62201;BME280;48197;42.732;27.192;2022-07-25T06:14:41;99560.88;;;30.70;46.50
62201;BME280;48197;42.732;27.192;2022-07-25T06:17:08;99567.50;;;31.26;43.79
62201;BME280;48197;42.732;27.192;2022-07-25T06:19:34;99562.28;;;31.04;43.96
62201;BME280;48197;42.732;27.192;2022-07-25T06:22:01;99564.59;;;30.52;45.06
62201;BME280;48197;42.732;27.192;2022-07-25T06:24:27;99563.38;;;29.37;46.58
62201;BME280;48197;42.732;27.192;2022-07-25T06:26:54;99564.00;;;28.43;49.15
62201;BME280;48197;42.732;27.192;2022-07-25T06:29:20;99558.38;;;28.62;49.10
62201;BME280;48197;42.732;27.192;2022-07-25T06:31:47;99554.59;;;29.35;47.98
62201;BME280;48197;42.732;27.192;2022-07-25T06:34:14;99556.56;;;29.59;47.08
62201;BME280;48197;42.732;27.192;2022-07-25T06:36:40;99555.84;;;30.37;45.68
62201;BME280;48197;42.732;27.192;2022-07-25T06:39:06;99547.03;;;31.36;44.00
62201;BME280;48197;42.732;27.192;2022-07-25T06:41:33;99546.59;;;31.66;42.76
62201;BME280;48197;42.732;27.192;2022-07-25T06:44:02;99551.81;;;31.20;43.16
62201;BME280;48197;42.732;27.192;2022-07-25T06:46:28;99546.78;;;31.12;43.44
62201;BME280;48197;42.732;27.192;2022-07-25T06:48:58;99557.91;;;31.03;44.02
62201;BME280;48197;42.732;27.192;2022-07-25T06:51:25;99554.03;;;31.13;44.31
62201;BME280;48197;42.732;27.192;2022-07-25T06:53:52;99553.84;;;32.09;42.73
62201;BME280;48197;42.732;27.192;2022-07-25T06:56:19;99546.44;;;32.63;40.78
62201;BME280;48197;42.732;27.192;2022-07-25T06:58:45;99551.88;;;32.82;41.47
62201;BME280;48197;42.732;27.192;2022-07-25T07:01:12;99555.31;;;32.52;41.07
62201;BME280;48197;42.732;27.192;2022-07-25T07:03:40;99546.38;;;32.92;40.07
62201;BME280;48197;42.732;27.192;2022-07-25T07:06:07;99539.16;;;32.54;40.71
62201;BME280;48197;42.732;27.192;2022-07-25T07:08:34;99543.56;;;32.34;41.16
62201;BME280;48197;42.732;27.192;2022-07-25T07:11:01;99545.44;;;31.27;43.38
62201;BME280;48197;42.732;27.192;2022-07-25T07:13:27;99547.59;;;32.10;42.56
62201;BME280;48197;42.732;27.192;2022-07-25T07:15:54;99553.13;;;32.66;40.89
62201;BME280;48197;42.732;27.192;2022-07-25T07:18:21;99553.13;;;32.66;40.46
62201;BME280;48197;42.732;27.192;2022-07-25T07:20:48;99545.75;;;33.14;40.21
62201;BME280;48197;42.732;27.192;2022-07-25T07:23:14;99552.03;;;32.77;40.61
62201;BME280;48197;42.732;27.192;2022-07-25T07:25:41;99554.03;;;31.13;42.96
62201;BME280;48197;42.732;27.192;2022-07-25T07:28:13;99560.66;;;31.29;43.13
62201;BME280;48197;42.732;27.192;2022-07-25T07:30:42;99552.69;;;32.04;42.09
62201;BME280;48197;42.732;27.192;2022-07-25T07:33:09;99557.06;;;32.26;41.78
62201;BME280;48197;42.732;27.192;2022-07-25T07:35:35;99560.22;;;32.72;41.10
62201;BME280;48197;42.732;27.192;2022-07-25T07:38:02;99554.94;;;33.21;40.64
62201;BME280;48197;42.732;27.192;2022-07-25T07:40:29;99560.44;;;34.16;39.23
62201;BME280;48197;42.732;27.192;2022-07-25T07:43:01;99553.19;;;35.02;37.55
62201;BME280;48197;42.732;27.192;2022-07-25T07:45:29;99550.13;;;35.00;37.18
62201;BME280;48197;42.732;27.192;2022-07-25T07:47:56;99550.84;;;34.37;38.14
62201;BME280;48197;42.732;27.192;2022-07-25T07:59:31;99559.66;;;34.31;37.85
62201;BME280;48197;42.732;27.192;2022-07-25T08:02:02;99555.84;;;34.21;37.82
62201;BME280;48197;42.732;27.192;2022-07-25T08:04:31;99564.75;;;34.79;37.06
62201;BME280;48197;42.732;27.192;2022-07-25T08:07:09;99562.25;;;34.83;36.79
62201;BME280;48197;42.732;27.192;2022-07-25T08:09:46;99558.06;;;34.76;37.26
62201;BME280;48197;42.732;27.192;2022-07-25T08:12:22;99553.09;;;34.69;37.08
62201;BME280;48197;42.732;27.192;2022-07-25T08:14:53;99544.09;;;34.81;37.16
62201;BME280;48197;42.732;27.192;2022-07-25T08:17:25;99548.34;;;35.12;36.77
62201;BME280;48197;42.732;27.192;2022-07-25T08:29:06;99563.47;;;33.88;38.11
62201;BME280;48197;42.732;27.192;2022-07-25T08:31:40;99559.66;;;34.24;37.73
62201;BME280;48197;42.732;27.192;2022-07-25T08:34:17;99563.84;;;33.76;38.43
62201;BME280;48197;42.732;27.192;2022-07-25T08:36:47;99554.88;;;33.13;40.17
62201;BME280;48197;42.732;27.192;2022-07-25T08:39:14;99546.66;;;33.76;38.96
62201;BME280;48197;42.732;27.192;2022-07-25T08:41:41;99546.28;;;34.11;38.62
62201;BME280;48197;42.732;27.192;2022-07-25T08:44:08;99548.00;;;33.91;38.79
62201;BME280;48197;42.732;27.192;2022-07-25T08:46:36;99554.00;;;32.24;41.35
62201;BME280;48197;42.732;27.192;2022-07-25T08:49:13;99546.50;;;30.89;44.89
62201;BME280;48197;42.732;27.192;2022-07-25T08:51:40;99542.97;;;30.70;45.35
62201;BME280;48197;42.732;27.192;2022-07-25T08:54:05;99541.88;;;31.47;43.12
62201;BME280;48197;42.732;27.192;2022-07-25T08:56:34;99532.88;;;31.30;43.76
62201;BME280;48197;42.732;27.192;2022-07-25T08:59:04;99536.97;;;30.60;45.08
62201;BME280;48197;42.732;27.192;2022-07-25T09:01:31;99536.16;;;31.47;43.85
62201;BME280;48197;42.732;27.192;2022-07-25T09:03:57;99544.06;;;32.83;42.00
62201;BME280;48197;42.732;27.192;2022-07-25T09:06:24;99543.31;;;33.34;40.08
62201;BME280;48197;42.732;27.192;2022-07-25T09:08:55;99546.47;;;33.82;39.66
62201;BME280;48197;42.732;27.192;2022-07-25T09:11:28;99541.47;;;34.36;38.46
62201;BME280;48197;42.732;27.192;2022-07-25T09:13:58;99545.91;;;34.22;37.89
62201;BME280;48197;42.732;27.192;2022-07-25T09:16:31;99551.41;;;33.59;39.50
62201;BME280;48197;42.732;27.192;2022-07-25T09:21:38;99553.22;;;33.25;39.63
62201;BME280;48197;42.732;27.192;2022-07-25T09:24:08;99545.88;;;32.36;41.35
62201;BME280;48197;42.732;27.192;2022-07-25T09:26:45;99544.59;;;32.16;41.69
62201;BME280;48197;42.732;27.192;2022-07-25T09:29:16;99549.91;;;32.41;41.57
62201;BME280;48197;42.732;27.192;2022-07-25T09:31:47;99552.53;;;33.04;40.43
62201;BME280;48197;42.732;27.192;2022-07-25T09:34:15;99551.22;;;33.80;39.36
62201;BME280;48197;42.732;27.192;2022-07-25T09:36:53;99552.00;;;33.05;40.16
62201;BME280;48197;42.732;27.192;2022-07-25T09:39:31;99555.72;;;32.27;41.57
62201;BME280;48197;42.732;27.192;2022-07-25T09:41:57;99553.06;;;32.94;41.06
62201;BME280;48197;42.732;27.192;2022-07-25T09:44:24;99544.28;;;33.44;39.89
62201;BME280;48197;42.732;27.192;2022-07-25T09:46:55;99546.53;;;33.23;39.53
62201;BME280;48197;42.732;27.192;2022-07-25T09:49:22;99559.97;;;32.99;39.51
62201;BME280;48197;42.732;27.192;2022-07-25T09:51:52;99550.81;;;32.57;40.44
62201;BME280;48197;42.732;27.192;2022-07-25T09:54:20;99555.94;;;32.94;40.24
62201;BME280;48197;42.732;27.192;2022-07-25T09:56:47;99552.31;;;33.53;39.44
62201;BME280;48197;42.732;27.192;2022-07-25T09:59:12;99555.66;;;32.77;40.32
62201;BME280;48197;42.732;27.192;2022-07-25T10:01:44;99547.59;;;32.10;42.01
62201;BME280;48197;42.732;27.192;2022-07-25T10:32:38;99524.94;;;32.41;40.30
62201;BME280;48197;42.732;27.192;2022-07-25T10:35:33;99531.16;;;32.32;40.73
62201;BME280;48197;42.732;27.192;2022-07-25T10:38:01;99534.78;;;32.98;39.88
62201;BME280;48197;42.732;27.192;2022-07-25T10:55:37;99520.38;;;33.19;39.24
62201;BME280;48197;42.732;27.192;2022-07-25T10:58:05;99517.19;;;33.53;39.11
62201;BME280;48197;42.732;27.192;2022-07-25T11:03:34;99514.38;;;33.76;38.05
62201;BME280;48197;42.732;27.192;2022-07-25T11:06:00;99513.75;;;33.54;38.31
62201;BME280;48197;42.732;27.192;2022-07-25T11:08:33;99510.03;;;33.15;39.12
62201;BME280;48197;42.732;27.192;2022-07-25T11:11:03;99503.34;;;33.13;38.75
62201;BME280;48197;42.732;27.192;2022-07-25T11:13:59;99488.34;;;34.05;38.23
62201;BME280;48197;42.732;27.192;2022-07-25T11:16:26;99495.81;;;34.23;37.44
62201;BME280;48197;42.732;27.192;2022-07-25T11:18:53;99492.72;;;34.36;36.84
62201;BME280;48197;42.732;27.192;2022-07-25T11:21:20;99492.59;;;33.73;37.99
62201;BME280;48197;42.732;27.192;2022-07-25T11:23:51;99498.00;;;33.09;38.69
62201;BME280;48197;42.732;27.192;2022-07-25T11:26:18;99501.47;;;32.71;38.94
62201;BME280;48197;42.732;27.192;2022-07-25T11:28:49;99501.78;;;33.04;38.71
62201;BME280;48197;42.732;27.192;2022-07-25T11:31:16;99496.97;;;32.91;38.69
62201;BME280;48197;42.732;27.192;2022-07-25T11:33:44;99483.75;;;33.40;38.29
62201;BME280;48197;42.732;27.192;2022-07-25T11:36:12;99494.84;;;34.05;36.90
62201;BME280;48197;42.732;27.192;2022-07-25T11:38:40;99479.19;;;34.29;36.33
62201;BME280;48197;42.732;27.192;2022-07-25T11:41:08;99493.97;;;34.58;35.35
62201;BME280;48197;42.732;27.192;2022-07-25T11:43:35;99491.78;;;34.90;35.04
62201;BME280;48197;42.732;27.192;2022-07-25T11:46:07;99485.97;;;35.05;34.47
62201;BME280;48197;42.732;27.192;2022-07-25T11:48:38;99486.84;;;35.48;33.92
62201;BME280;48197;42.732;27.192;2022-07-25T11:51:25;99487.78;;;36.01;33.32
62201;BME280;48197;42.732;27.192;2022-07-25T11:59:41;99479.16;;;37.33;31.80
62201;BME280;48197;42.732;27.192;2022-07-25T12:02:08;99476.44;;;37.35;30.85
62201;BME280;48197;42.732;27.192;2022-07-25T12:04:35;99476.66;;;37.19;31.37
62201;BME280;48197;42.732;27.192;2022-07-25T12:07:02;99474.56;;;37.03;31.29
62201;BME280;48197;42.732;27.192;2022-07-25T12:09:33;99481.16;;;36.68;31.24
62201;BME280;48197;42.732;27.192;2022-07-25T12:12:03;99468.53;;;36.81;31.45
62201;BME280;48197;42.732;27.192;2022-07-25T12:14:40;99465.69;;;36.91;31.81
62201;BME280;48197;42.732;27.192;2022-07-25T12:17:08;99474.28;;;36.64;31.08
62201;BME280;48197;42.732;27.192;2022-07-25T12:19:38;99475.81;;;36.47;31.32
62201;BME280;48197;42.732;27.192;2022-07-25T12:22:06;99474.38;;;36.56;31.29
62201;BME280;48197;42.732;27.192;2022-07-25T12:24:33;99463.63;;;36.74;30.88
62201;BME280;48197;42.732;27.192;2022-07-25T12:27:00;99453.59;;;36.92;30.96
62201;BME280;48197;42.732;27.192;2022-07-25T12:29:35;99455.78;;;37.29;30.74
62201;BME280;48197;42.732;27.192;2022-07-25T12:32:00;99454.59;;;37.78;29.82
62201;BME280;48197;42.732;27.192;2022-07-25T12:34:28;99459.50;;;36.32;31.42
62201;BME280;48197;42.732;27.192;2022-07-25T12:36:59;99459.34;;;35.70;32.40
62201;BME280;48197;42.732;27.192;2022-07-25T12:39:25;99447.66;;;36.28;31.98
62201;BME280;48197;42.732;27.192;2022-07-25T12:41:53;99434.78;;;36.47;31.72
62201;BME280;48197;42.732;27.192;2022-07-25T12:44:24;99443.34;;;35.27;32.96
62201;BME280;48197;42.732;27.192;2022-07-25T12:46:50;99441.94;;;33.91;35.00
62201;BME280;48197;42.732;27.192;2022-07-25T12:49:17;99443.44;;;33.15;36.52
62201;BME280;48197;42.732;27.192;2022-07-25T12:51:43;99445.09;;;33.03;36.59
62201;BME280;48197;42.732;27.192;2022-07-25T12:54:27;99435.88;;;34.91;34.63
62201;BME280;48197;42.732;27.192;2022-07-25T12:57:27;99434.84;;;37.01;31.65
62201;BME280;48197;42.732;27.192;2022-07-25T13:03:02;99423.81;;;38.78;28.81
62201;BME280;48197;42.732;27.192;2022-07-25T13:11:18;99421.28;;;33.92;35.22
62201;BME280;48197;42.732;27.192;2022-07-25T13:13:45;99426.63;;;33.11;36.53
62201;BME280;48197;42.732;27.192;2022-07-25T13:16:11;99420.34;;;33.21;36.68
62201;BME280;48197;42.732;27.192;2022-07-25T13:18:38;99414.06;;;34.55;35.20
62201;BME280;48197;42.732;27.192;2022-07-25T13:21:06;99411.97;;;34.63;35.28
62201;BME280;48197;42.732;27.192;2022-07-25T13:23:33;99408.53;;;33.32;36.60
62201;BME280;48197;42.732;27.192;2022-07-25T13:26:00;99413.44;;;32.12;38.49
62201;BME280;48197;42.732;27.192;2022-07-25T13:28:27;99410.06;;;31.93;39.65
62201;BME280;48197;42.732;27.192;2022-07-25T13:30:54;99422.16;;;31.99;39.63
62201;BME280;48197;42.732;27.192;2022-07-25T13:33:27;99408.69;;;31.58;40.36
62201;BME280;48197;42.732;27.192;2022-07-25T13:35:54;99411.69;;;31.31;41.23
62201;BME280;48197;42.732;27.192;2022-07-25T13:38:20;99407.22;;;31.01;42.25
62201;BME280;48197;42.732;27.192;2022-07-25T13:40:47;99406.56;;;30.95;42.49
62201;BME280;48197;42.732;27.192;2022-07-25T13:43:13;99410.75;;;31.78;40.82
62201;BME280;48197;42.732;27.192;2022-07-25T13:45:40;99395.91;;;33.89;37.93
62201;BME280;48197;42.732;27.192;2022-07-25T13:48:08;99384.97;;;35.49;35.18
62201;BME280;48197;42.732;27.192;2022-07-25T13:50:35;99388.09;;;36.21;33.76
62201;BME280;48197;42.732;27.192;2022-07-25T13:53:02;99382.97;;;36.64;32.53
62201;BME280;48197;42.732;27.192;2022-07-25T13:55:30;99388.50;;;37.53;31.65
62201;BME280;48197;42.732;27.192;2022-07-25T13:57:57;99383.34;;;37.52;30.98
62201;BME280;48197;42.732;27.192;2022-07-25T14:00:24;99381.44;;;37.64;31.22
62201;BME280;48197;42.732;27.192;2022-07-25T14:02:50;99381.19;;;38.18;30.17
62201;BME280;48197;42.732;27.192;2022-07-25T14:05:17;99373.59;;;37.37;30.89
62201;BME280;48197;42.732;27.192;2022-07-25T14:07:44;99373.41;;;36.89;31.86
62201;BME280;48197;42.732;27.192;2022-07-25T14:10:11;99380.97;;;36.05;32.78
62201;BME280;48197;42.732;27.192;2022-07-25T14:24:48;99368.56;;;37.85;30.58
62201;BME280;48197;42.732;27.192;2022-07-25T14:27:17;99362.16;;;37.76;30.52
62201;BME280;48197;42.732;27.192;2022-07-25T14:29:43;99372.34;;;37.21;31.18
62201;BME280;48197;42.732;27.192;2022-07-25T14:32:10;99369.91;;;37.17;30.90
62201;BME280;48197;42.732;27.192;2022-07-25T14:34:37;99354.16;;;36.37;32.10
62201;BME280;48197;42.732;27.192;2022-07-25T14:37:04;99362.56;;;34.97;33.44
62201;BME280;48197;42.732;27.192;2022-07-25T14:39:32;99350.56;;;34.10;34.51
62201;BME280;48197;42.732;27.192;2022-07-25T14:41:58;99347.16;;;33.96;35.47
62201;BME280;48197;42.732;27.192;2022-07-25T14:44:25;99341.09;;;33.77;36.35
62201;BME280;48197;42.732;27.192;2022-07-25T14:46:54;99343.41;;;33.40;36.79
62201;BME280;48197;42.732;27.192;2022-07-25T14:49:38;99340.72;;;32.88;38.10
62201;BME280;48197;42.732;27.192;2022-07-25T14:52:05;99344.94;;;32.35;38.78
62201;BME280;48197;42.732;27.192;2022-07-25T14:57:36;99348.63;;;31.71;39.82
62201;BME280;48197;42.732;27.192;2022-07-25T15:00:11;99351.25;;;31.19;41.69
62201;BME280;48197;42.732;27.192;2022-07-25T15:02:38;99340.84;;;30.66;44.28
62201;BME280;48197;42.732;27.192;2022-07-25T15:05:05;99347.72;;;30.23;45.83
62201;BME280;48197;42.732;27.192;2022-07-25T15:07:35;99344.72;;;29.95;46.62
62201;BME280;48197;42.732;27.192;2022-07-25T15:10:03;99341.97;;;29.76;47.35
62201;BME280;48197;42.732;27.192;2022-07-25T15:12:30;99349.28;;;29.58;48.14
62201;BME280;48197;42.732;27.192;2022-07-25T15:14:56;99349.50;;;29.60;48.53
62201;BME280;48197;42.732;27.192;2022-07-25T15:17:23;99352.66;;;29.56;48.80
62201;BME280;48197;42.732;27.192;2022-07-25T15:29:16;99355.47;;;28.97;51.63
62201;BME280;48197;42.732;27.192;2022-07-25T15:32:21;99363.31;;;28.91;52.22
62201;BME280;48197;42.732;27.192;2022-07-25T15:34:47;99352.50;;;28.89;51.92
62201;BME280;48197;42.732;27.192;2022-07-25T15:37:14;99365.06;;;28.81;52.34
62201;BME280;48197;42.732;27.192;2022-07-25T15:39:40;99363.16;;;28.70;52.85
62201;BME280;48197;42.732;27.192;2022-07-25T15:42:06;99366.59;;;28.63;53.59
62201;BME280;48197;42.732;27.192;2022-07-25T15:44:33;99366.13;;;28.78;53.71
62201;BME280;48197;42.732;27.192;2022-07-25T15:47:01;99359.84;;;29.17;52.98